Time;durP1;ratioP1;P1;durP2;ratioP2;P2;SDS_P1;SDS_P2;PMS_P1;PMS_P2;Temp;Humidity;BMP_temperature;BMP_pressure;BME280_temperature;BME280_humidity;BME280_pressure;Samples;Min_cycle;Max_cycle;Signal;HPM_P1;HPM_P2
2021/04/23 00:00:33;;;;;;;4.35;2.40;;;;;;;16.97;42.55;99732.00;5034755;28;20117;-80
2021/04/23 00:03:01;;;;;;;3.22;2.72;;;;;;;16.90;42.01;99723.22;5034924;28;20025;-79
2021/04/23 00:05:27;;;;;;;2.40;2.20;;;;;;;17.00;41.83;99738.75;5033966;28;20053;-80
2021/04/23 00:07:53;;;;;;;2.55;2.15;;;;;;;17.01;41.54;99729.72;5036170;28;20072;-81
2021/04/23 00:10:21;;;;;;;3.30;2.17;;;;;;;17.02;41.71;99744.69;5035158;28;20060;-78
2021/04/23 00:12:47;;;;;;;3.60;2.22;;;;;;;16.85;41.17;99704.38;5033957;28;20033;-82
2021/04/23 00:15:16;;;;;;;3.03;2.45;;;;;;;17.07;41.42;99721.66;5033809;28;20021;-79
2021/04/23 00:17:42;;;;;;;4.40;2.88;;;;;;;16.69;41.63;99654.22;5035643;28;20045;-79
2021/04/23 00:20:28;;;;;;;4.30;3.28;;;;;;;16.71;41.97;99660.97;5035028;28;20436;-78
2021/04/23 00:22:55;;;;;;;6.05;2.92;;;;;;;16.67;42.37;99659.78;5032710;28;20451;-79
2021/04/23 00:25:26;;;;;;;4.40;2.90;;;;;;;16.76;42.30;99684.31;5034834;28;20025;-79
2021/04/23 00:27:54;;;;;;;3.20;2.90;;;;;;;16.93;42.52;99737.97;5034604;28;20035;-81
2021/04/23 00:30:23;;;;;;;4.80;2.65;;;;;;;16.91;42.25;99727.53;5034891;28;20025;-77
2021/04/23 00:32:51;;;;;;;2.85;2.42;;;;;;;16.87;42.48;99728.16;5033634;28;20091;-77
2021/04/23 00:35:17;;;;;;;5.15;2.90;;;;;;;16.85;42.59;99731.03;5034728;28;20083;-80
2021/04/23 00:37:47;;;;;;;3.78;3.10;;;;;;;16.67;42.43;99701.63;5035302;28;20026;-79
2021/04/23 00:40:15;;;;;;;4.88;3.00;;;;;;;16.18;43.24;99625.75;5033582;28;20028;-79
2021/04/23 00:42:41;;;;;;;4.60;3.25;;;;;;;16.67;43.18;99717.59;5034332;28;20029;-80
2021/04/23 00:45:08;;;;;;;4.05;3.38;;;;;;;16.63;43.41;99714.53;5033561;28;20032;-81
2021/04/23 00:47:33;;;;;;;5.82;4.25;;;;;;;16.48;43.75;99704.13;5035143;28;20100;-79
2021/04/23 00:49:58;;;;;;;10.02;4.65;;;;;;;16.48;43.48;99701.47;5033404;28;20475;-78
2021/04/23 00:52:24;;;;;;;8.05;3.70;;;;;;;16.58;43.84;99719.66;5034490;28;20421;-80
2021/04/23 00:54:49;;;;;;;8.23;3.55;;;;;;;16.54;44.00;99726.47;5034398;28;20045;-79
2021/04/23 00:57:15;;;;;;;6.57;3.67;;;;;;;15.80;43.79;99617.72;5035242;28;20021;-80
2021/04/23 00:59:40;;;;;;;5.10;3.83;;;;;;;16.47;44.14;99734.47;5034535;28;20030;-78
2021/04/23 01:02:10;;;;;;;6.05;3.78;;;;;;;16.47;43.72;99731.81;5034324;28;20034;-77
2021/04/23 01:04:36;;;;;;;17.00;5.07;;;;;;;16.41;44.19;99731.84;5034428;28;20021;-77
2021/04/23 01:07:02;;;;;;;11.18;4.20;;;;;;;16.39;43.99;99729.41;5033501;28;20021;-81
2021/04/23 01:09:30;;;;;;;6.82;4.00;;;;;;;16.38;44.35;99722.44;5042385;28;20344;-78
2021/04/23 01:11:57;;;;;;;7.13;4.22;;;;;;;15.93;44.36;99678.09;5036925;28;20026;-79
2021/04/23 01:14:23;;;;;;;11.23;4.68;;;;;;;16.11;44.60;99704.88;5034292;28;20431;-79
2021/04/23 01:16:49;;;;;;;8.75;5.22;;;;;;;16.09;44.79;99699.75;5034365;28;20032;-80
2021/04/23 01:19:19;;;;;;;5.90;5.30;;;;;;;16.29;44.97;99750.31;5033223;28;20021;-78
2021/04/23 01:21:45;;;;;;;8.20;4.78;;;;;;;16.25;45.38;99729.63;5034177;28;20072;-79
2021/04/23 01:24:11;;;;;;;6.75;4.45;;;;;;;16.20;45.40;99725.75;5034944;28;20025;-78
2021/04/23 01:26:43;;;;;;;8.63;4.38;;;;;;;15.38;45.42;99593.19;5034019;28;20021;-78
2021/04/23 01:29:10;;;;;;;6.03;4.90;;;;;;;16.22;45.26;99738.84;5034210;28;20021;-78
2021/04/23 01:31:38;;;;;;;6.97;4.22;;;;;;;16.23;45.19;99739.66;5034200;28;20033;-78
2021/04/23 01:34:22;;;;;;;8.95;4.95;;;;;;;16.26;45.32;99739.25;5036005;28;20032;-79
2021/04/23 01:36:49;;;;;;;6.10;4.30;;;;;;;16.26;45.17;99728.59;5037719;28;20424;-78
2021/04/23 01:39:17;;;;;;;11.77;5.30;;;;;;;16.07;45.18;99698.31;5038625;28;20120;-79
2021/04/23 01:41:43;;;;;;;15.07;6.07;;;;;;;16.24;45.98;99736.78;5038175;28;20029;-77
2021/04/23 01:44:10;;;;;;;13.77;6.40;;;;;;;16.18;45.98;99745.63;5039615;28;20030;-78
2021/04/23 01:46:36;;;;;;;9.23;6.53;;;;;;;15.99;46.21;99715.34;5040464;28;20379;-78
2021/04/23 01:49:12;;;;;;;9.45;7.20;;;;;;;16.13;46.56;99732.13;5040189;28;20022;-79
2021/04/23 01:51:39;;;;;;;12.13;6.75;;;;;;;16.10;46.74;99736.00;5040173;28;20079;-79
2021/04/23 01:54:07;;;;;;;12.25;7.18;;;;;;;15.43;46.55;99637.81;5039492;28;20030;-80
2021/04/23 01:56:33;;;;;;;10.43;6.72;;;;;;;16.03;46.31;99723.75;5039696;28;20021;-78
2021/04/23 01:58:58;;;;;;;9.35;7.18;;;;;;;15.51;46.64;99645.56;5039914;28;20105;-79
2021/04/23 02:01:24;;;;;;;9.50;6.90;;;;;;;15.71;46.60;99670.38;5039748;28;20029;-80
2021/04/23 02:03:49;;;;;;;14.10;8.35;;;;;;;16.08;46.64;99731.94;5039235;28;20030;-79
2021/04/23 02:06:14;;;;;;;12.80;8.13;;;;;;;15.88;46.65;99697.34;5039249;28;20021;-78
2021/04/23 02:08:40;;;;;;;11.32;8.18;;;;;;;16.07;46.60;99725.78;5038633;28;20420;-78
2021/04/23 02:11:10;;;;;;;13.20;8.57;;;;;;;16.08;46.77;99729.25;5039145;28;20037;-79
2021/04/23 02:13:38;;;;;;;13.30;8.32;;;;;;;16.00;46.98;99713.50;5037983;28;20018;-78
2021/04/23 02:16:07;;;;;;;11.52;7.93;;;;;;;16.08;46.77;99729.25;5039192;28;20017;-75
2021/04/23 02:18:33;;;;;;;11.18;7.78;;;;;;;15.82;46.91;99695.53;5038687;28;20052;-78
2021/04/23 02:20:59;;;;;;;13.80;8.60;;;;;;;15.97;47.01;99714.75;5037118;28;20029;-75
2021/04/23 02:23:24;;;;;;;14.45;8.63;;;;;;;16.00;46.90;99724.16;5037178;28;20025;-80
2021/04/23 02:25:52;;;;;;;14.32;8.23;;;;;;;15.70;47.24;99679.38;5038055;28;20032;-76
2021/04/23 02:28:18;;;;;;;12.80;9.02;;;;;;;15.46;47.26;99656.84;5038206;28;20032;-79
2021/04/23 02:30:57;;;;;;;11.43;8.75;;;;;;;15.96;47.25;99737.06;5037110;28;20096;-76
2021/04/23 02:33:23;;;;;;;12.93;8.43;;;;;;;15.07;47.29;99604.50;5035820;28;20025;-77
2021/04/23 02:35:50;;;;;;;14.40;8.82;;;;;;;15.92;47.25;99735.03;5036643;28;20030;-77
2021/04/23 02:38:16;;;;;;;17.92;11.95;;;;;;;15.61;47.53;99687.78;5036471;28;20112;-77
2021/04/23 02:40:43;;;;;;;18.30;13.15;;;;;;;15.65;47.54;99697.81;5036777;28;20104;-78
2021/04/23 02:43:13;;;;;;;19.58;13.90;;;;;;;15.88;47.58;99735.44;5035725;28;20112;-76
2021/04/23 02:45:41;;;;;;;16.85;12.35;;;;;;;15.81;47.72;99739.97;5035663;28;20032;-79
2021/04/23 02:48:09;;;;;;;21.30;13.40;;;;;;;15.34;47.72;99669.13;5036586;28;20108;-78
2021/04/23 02:50:36;;;;;;;16.52;12.30;;;;;;;15.62;48.17;99722.19;5035513;28;20017;-74
2021/04/23 02:53:03;;;;;;;24.50;16.42;;;;;;;15.74;48.00;99741.81;5036450;28;20029;-78
2021/04/23 02:55:29;;;;;;;19.45;16.13;;;;;;;15.74;48.13;99749.81;5036708;28;20024;-75
2021/04/23 02:57:54;;;;;;;17.27;14.07;;;;;;;15.76;47.87;99753.09;5036715;28;20018;-76
2021/04/23 03:00:21;;;;;;;15.35;11.43;;;;;;;15.23;48.20;99678.53;5036338;28;20344;-78
2021/04/23 03:02:46;;;;;;;14.82;10.50;;;;;;;15.75;48.09;99778.06;5037153;28;20013;-81
2021/04/23 03:05:12;;;;;;;13.52;10.35;;;;;;;15.76;48.37;99761.06;5036506;28;20021;-82
2021/04/23 03:07:38;;;;;;;15.55;9.68;;;;;;;15.61;48.31;99733.03;5038136;28;20048;-81
2021/04/23 03:10:04;;;;;;;12.88;9.60;;;;;;;15.35;48.30;99696.53;5040199;28;20159;-81
2021/04/23 03:12:29;;;;;;;12.02;9.07;;;;;;;15.76;48.33;99742.44;5038270;28;20021;-83
2021/04/23 03:14:55;;;;;;;19.77;11.07;;;;;;;15.50;48.44;99699.81;5034921;28;20116;-81
2021/04/23 03:17:20;;;;;;;19.63;9.55;;;;;;;15.59;48.53;99727.88;5036071;28;20052;-82
2021/04/23 03:19:45;;;;;;;11.75;7.63;;;;;;;15.50;48.60;99715.78;5035932;28;20025;-80
2021/04/23 03:22:11;;;;;;;15.48;7.80;;;;;;;15.70;48.27;99758.41;5037164;28;20029;-80
2021/04/23 03:24:36;;;;;;;12.50;8.45;;;;;;;15.71;48.46;99768.03;5034853;28;20037;-80
2021/04/23 03:27:03;;;;;;;14.10;8.23;;;;;;;15.70;48.31;99767.22;5035642;28;20026;-83
2021/04/23 03:29:28;;;;;;;13.60;7.72;;;;;;;14.86;48.50;99652.53;5035802;28;20100;-81
2021/04/23 03:31:53;;;;;;;10.02;7.25;;;;;;;14.77;48.72;99624.50;5036972;28;20053;-84
2021/04/23 03:34:22;;;;;;;14.27;8.02;;;;;;;15.52;48.70;99766.97;5035830;28;20336;-79
2021/04/23 03:36:47;;;;;;;17.83;9.02;;;;;;;15.70;49.04;99787.69;5035427;28;20021;-80
2021/04/23 03:39:13;;;;;;;12.35;8.43;;;;;;;15.60;48.94;99780.09;5035589;28;20029;-81
2021/04/23 03:41:40;;;;;;;15.40;8.93;;;;;;;15.65;48.97;99785.66;5035598;28;20025;-82
2021/04/23 03:44:06;;;;;;;14.70;8.32;;;;;;;15.64;49.27;99785.84;5035927;28;20033;-77
2021/04/23 03:46:32;;;;;;;14.95;8.38;;;;;;;15.48;49.27;99760.41;5035932;28;20087;-83
2021/04/23 03:48:58;;;;;;;10.90;6.10;;;;;;;15.63;49.13;99787.69;5034220;28;20029;-80
2021/04/23 03:51:24;;;;;;;10.13;6.55;;;;;;;15.60;49.10;99787.25;5035501;28;20025;-82
2021/04/23 03:53:51;;;;;;;10.65;5.97;;;;;;;15.58;49.32;99806.09;5034099;28;20348;-81
2021/04/23 03:56:18;;;;;;;13.93;7.40;;;;;;;14.86;49.11;99703.88;5037330;28;20051;-81
2021/04/23 03:58:44;;;;;;;12.35;8.90;;;;;;;14.88;49.47;99725.75;5035400;28;20386;-82
2021/04/23 04:01:16;;;;;;;16.48;8.70;;;;;;;15.30;49.91;99802.75;5035193;28;20021;-82
2021/04/23 04:03:43;;;;;;;11.07;8.27;;;;;;;15.27;50.09;99807.47;5035069;28;20025;-80
2021/04/23 04:06:09;;;;;;;12.85;9.00;;;;;;;15.18;50.10;99803.34;5035200;28;20029;-82
2021/04/23 04:08:35;;;;;;;11.77;8.98;;;;;;;15.29;50.01;99831.19;5034596;28;20025;-81
2021/04/23 04:11:03;;;;;;;11.88;7.90;;;;;;;14.54;50.11;99725.84;5033910;28;20224;-81
2021/04/23 04:13:28;;;;;;;9.98;8.20;;;;;;;15.26;50.45;99831.59;5035056;28;20022;-81
2021/04/23 04:15:54;;;;;;;13.73;8.40;;;;;;;14.95;51.00;99818.84;5034879;28;20305;-80
2021/04/23 04:18:21;;;;;;;13.73;8.85;;;;;;;15.03;51.04;99816.00;5034195;28;20054;-81
2021/04/23 04:20:48;;;;;;;15.57;9.57;;;;;;;14.45;50.81;99711.91;5034894;28;20021;-80
2021/04/23 04:23:17;;;;;;;13.15;9.05;;;;;;;15.14;50.69;99810.09;5034193;28;20034;-81
2021/04/23 04:25:45;;;;;;;11.20;8.40;;;;;;;15.19;50.78;99814.81;5034691;28;20446;-79
2021/04/23 04:28:12;;;;;;;13.60;8.18;;;;;;;14.85;50.75;99743.91;5034728;28;20028;-82
2021/04/23 04:30:38;;;;;;;13.23;8.07;;;;;;;14.57;50.80;99697.03;5034854;28;20025;-81
2021/04/23 04:33:05;;;;;;;13.10;8.60;;;;;;;15.31;50.57;99838.97;5034751;28;20021;-79
2021/04/23 04:35:32;;;;;;;11.75;8.18;;;;;;;14.68;50.52;99730.19;5034726;28;20119;-79
2021/04/23 04:37:58;;;;;;;15.10;8.60;;;;;;;15.31;50.63;99839.78;5035197;28;20032;-80
2021/04/23 04:40:26;;;;;;;10.27;7.90;;;;;;;15.04;50.55;99775.09;5034684;28;20095;-79
2021/04/23 04:42:52;;;;;;;10.60;8.75;;;;;;;15.43;50.49;99840.84;5033412;28;20087;-80
2021/04/23 04:45:21;;;;;;;11.82;8.80;;;;;;;15.45;50.25;99841.47;5034599;28;20029;-79
2021/04/23 04:47:47;;;;;;;14.20;8.77;;;;;;;15.50;50.23;99843.50;5034495;28;20025;-79
2021/04/23 04:50:24;;;;;;;15.07;9.57;;;;;;;15.51;50.30;99850.47;5034586;28;20018;-80
2021/04/23 04:52:50;;;;;;;17.00;12.23;;;;;;;15.40;50.16;99816.47;5034460;28;20112;-78
2021/04/23 04:55:16;;;;;;;14.43;11.50;;;;;;;15.25;50.04;99798.84;5034665;28;20096;-79
2021/04/23 04:57:42;;;;;;;18.27;11.35;;;;;;;15.55;50.02;99836.56;5034581;28;20315;-82
2021/04/23 05:00:10;;;;;;;15.23;9.57;;;;;;;15.52;49.98;99849.44;5035542;28;20017;-78
2021/04/23 05:02:35;;;;;;;15.90;10.15;;;;;;;15.12;50.32;99820.09;5045012;28;20435;-78
2021/04/23 05:05:02;;;;;;;16.98;11.57;;;;;;;14.59;50.11;99718.09;5039925;28;20044;-81
2021/04/23 05:07:27;;;;;;;16.73;12.40;;;;;;;14.52;50.28;99704.78;5052209;28;20144;-78
2021/04/23 05:09:53;;;;;;;17.33;12.77;;;;;;;15.18;50.24;99789.22;5059913;28;20052;-79
2021/04/23 05:12:18;;;;;;;20.83;13.10;;;;;;;15.29;50.15;99793.13;5059376;28;20025;-79
2021/04/23 05:14:43;;;;;;;23.02;14.60;;;;;;;15.58;50.06;99835.38;5056360;28;20039;-75
2021/04/23 05:17:09;;;;;;;20.45;13.85;;;;;;;14.55;49.91;99680.47;5058134;28;20419;-78
2021/04/23 05:19:34;;;;;;;22.70;16.17;;;;;;;15.55;50.08;99847.22;5058066;28;20021;-79
2021/04/23 05:21:59;;;;;;;24.80;18.60;;;;;;;15.62;49.95;99847.28;5047007;28;20025;-79
2021/04/23 05:24:25;;;;;;;30.35;19.10;;;;;;;15.54;50.26;99844.75;5057829;28;20048;-80
2021/04/23 05:26:50;;;;;;;28.02;19.75;;;;;;;15.26;50.08;99795.19;5053250;28;20108;-77
2021/04/23 05:29:16;;;;;;;27.40;19.45;;;;;;;15.63;50.21;99864.06;5036775;28;20045;-79
2021/04/23 05:31:41;;;;;;;26.75;18.33;;;;;;;14.91;50.24;99738.66;5041845;28;20443;-80
2021/04/23 05:34:07;;;;;;;30.02;20.33;;;;;;;15.04;50.03;99743.19;5037938;28;20021;-79
2021/04/23 05:36:32;;;;;;;27.95;19.35;;;;;;;15.68;50.06;99837.66;5037796;28;20446;-79
2021/04/23 05:38:58;;;;;;;28.95;19.73;;;;;;;15.79;49.97;99843.19;5036471;28;20071;-81
2021/04/23 05:41:23;;;;;;;17.25;12.73;;;;;;;15.79;50.14;99847.69;5037060;28;20021;-80
2021/04/23 05:43:49;;;;;;;16.65;12.75;;;;;;;15.62;50.16;99815.34;5037084;28;20059;-78
2021/04/23 05:46:19;;;;;;;17.23;13.02;;;;;;;15.27;50.04;99751.59;5035530;28;20017;-79
2021/04/23 05:48:46;;;;;;;17.50;12.40;;;;;;;15.89;49.94;99829.47;5037607;28;20017;-78
2021/04/23 05:51:12;;;;;;;15.68;10.88;;;;;;;16.05;49.64;99852.19;5043625;28;20029;-81
2021/04/23 05:53:38;;;;;;;15.50;11.50;;;;;;;16.05;49.42;99854.88;5047579;28;20078;-77
2021/04/23 05:56:04;;;;;;;14.82;9.70;;;;;;;16.19;49.13;99856.50;5042919;28;20107;-78
2021/04/23 05:58:30;;;;;;;13.43;9.90;;;;;;;16.16;49.15;99857.72;5049222;28;20416;-77
2021/04/23 06:00:55;;;;;;;14.88;9.90;;;;;;;16.29;49.07;99875.53;5038403;28;20076;-77
2021/04/23 06:03:21;;;;;;;11.38;9.50;;;;;;;15.72;49.37;99782.97;5034791;28;20029;-77
2021/04/23 06:05:47;;;;;;;14.23;9.48;;;;;;;16.27;49.29;99880.25;5035966;28;20064;-77
2021/04/23 06:08:13;;;;;;;16.10;11.20;;;;;;;15.89;49.15;99803.66;5040986;28;20030;-78
2021/04/23 06:10:42;;;;;;;11.02;9.30;;;;;;;16.47;49.01;99881.06;5036235;28;20028;-80
2021/04/23 06:13:08;;;;;;;12.63;9.80;;;;;;;16.09;48.82;99810.81;5036141;28;20028;-78
2021/04/23 06:15:33;;;;;;;14.30;10.65;;;;;;;16.46;48.52;99855.44;5036939;28;20022;-80
2021/04/23 06:17:59;;;;;;;12.00;8.18;;;;;;;16.41;48.49;99849.91;5036607;28;20428;-81
2021/04/23 06:20:30;;;;;;;16.75;11.10;;;;;;;15.63;48.93;99742.44;5034118;28;20452;-79
2021/04/23 06:22:56;;;;;;;12.77;9.27;;;;;;;16.58;48.56;99902.78;5035588;28;20037;-80
2021/04/23 06:25:22;;;;;;;14.93;10.32;;;;;;;16.61;48.99;99900.53;5036838;28;20033;-78
2021/04/23 06:27:50;;;;;;;10.30;8.30;;;;;;;16.29;48.76;99835.56;5035460;28;20108;-77
2021/04/23 06:30:19;;;;;;;10.32;6.50;;;;;;;16.57;48.84;99899.31;5036022;28;20494;-79
2021/04/23 06:32:46;;;;;;;7.68;5.45;;;;;;;16.59;48.41;99894.59;5035921;28;20029;-77
2021/04/23 06:35:14;;;;;;;5.85;4.20;;;;;;;16.42;48.30;99874.72;5037730;28;20443;-77
2021/04/23 06:37:40;;;;;;;5.53;4.25;;;;;;;16.65;48.23;99916.91;5043703;28;20024;-78
2021/04/23 06:40:06;;;;;;;11.15;4.90;;;;;;;16.65;48.06;99919.59;5042135;28;20104;-78
2021/04/23 06:42:31;;;;;;;4.20;3.50;;;;;;;16.37;48.05;99871.88;5032745;28;20029;-78
2021/04/23 06:44:57;;;;;;;4.82;4.03;;;;;;;16.62;47.81;99925.34;5036323;28;20018;-79
2021/04/23 06:47:22;;;;;;;9.40;4.80;;;;;;;16.43;47.65;99882.50;5038370;28;20036;-76
2021/04/23 06:49:48;;;;;;;5.28;4.38;;;;;;;16.34;47.68;99865.06;5040190;28;20017;-81
2021/04/23 06:52:13;;;;;;;6.78;5.18;;;;;;;15.63;47.58;99747.78;5040215;28;20043;-76
2021/04/23 06:54:39;;;;;;;5.88;4.22;;;;;;;16.72;47.61;99915.09;5044043;28;20021;-75
2021/04/23 06:57:05;;;;;;;8.80;4.88;;;;;;;16.39;47.70;99881.28;5037987;28;20360;-77
2021/04/23 06:59:30;;;;;;;5.28;4.78;;;;;;;16.74;47.63;99907.69;5033881;28;20484;-76
2021/04/23 07:01:56;;;;;;;4.95;4.03;;;;;;;16.43;47.69;99863.03;5035202;28;20029;-81
2021/04/23 07:04:21;;;;;;;6.13;4.10;;;;;;;16.44;47.86;99862.00;5036884;28;20056;-80
2021/04/23 07:06:47;;;;;;;7.00;4.75;;;;;;;15.97;47.40;99780.50;5037303;28;20036;-77
2021/04/23 07:09:17;;;;;;;4.88;4.03;;;;;;;16.57;47.74;99863.81;5036444;28;20040;-79
2021/04/23 07:11:43;;;;;;;6.85;3.90;;;;;;;16.64;47.71;99884.09;5040034;28;20033;-79
2021/04/23 07:14:08;;;;;;;4.60;3.78;;;;;;;17.06;47.49;99930.78;5036069;28;20054;-80
2021/04/23 07:16:33;;;;;;;5.20;3.38;;;;;;;16.96;47.50;99927.75;5036108;28;20049;-74
2021/04/23 07:18:59;;;;;;;6.00;3.65;;;;;;;16.36;47.49;99830.25;5035743;28;20441;-79
2021/04/23 07:21:24;;;;;;;4.05;3.13;;;;;;;17.04;47.47;99935.50;5035012;28;20447;-77
2021/04/23 07:23:50;;;;;;;5.72;4.38;;;;;;;16.77;47.49;99893.94;5035800;28;20026;-76
2021/04/23 07:26:15;;;;;;;5.22;3.28;;;;;;;17.08;47.40;99936.72;5036382;28;20036;-74
2021/04/23 07:28:41;;;;;;;6.05;3.65;;;;;;;16.88;47.75;99903.16;5033996;28;20033;-75
2021/04/23 07:31:06;;;;;;;6.60;3.92;;;;;;;17.08;47.42;99931.41;5032252;28;20029;-75
2021/04/23 07:33:31;;;;;;;5.57;3.88;;;;;;;17.32;47.17;99939.75;5033800;28;20427;-77
2021/04/23 07:35:57;;;;;;;10.20;4.65;;;;;;;17.39;47.10;99946.69;5040275;28;20102;-78
2021/04/23 07:38:22;;;;;;;9.43;4.60;;;;;;;17.44;47.32;99935.38;5039944;28;20328;-77
2021/04/23 07:40:48;;;;;;;4.90;4.10;;;;;;;17.37;46.85;99930.06;5040814;28;20454;-76
2021/04/23 07:43:13;;;;;;;8.13;5.32;;;;;;;17.27;46.69;99918.22;5044894;28;20029;-78
2021/04/23 07:45:39;;;;;;;5.38;3.38;;;;;;;17.33;46.92;99915.50;5042740;28;20394;-77
2021/04/23 07:48:06;;;;;;;4.40;3.38;;;;;;;17.41;47.18;99947.31;5033828;28;20026;-75
2021/04/23 07:50:31;;;;;;;4.28;3.40;;;;;;;17.38;46.90;99930.88;5034212;28;20060;-77
2021/04/23 07:52:57;;;;;;;4.68;3.55;;;;;;;17.55;46.79;99939.22;5033559;28;20364;-77
2021/04/23 07:55:23;;;;;;;6.00;3.40;;;;;;;17.42;47.11;99924.91;5034200;28;20108;-78
2021/04/23 07:57:51;;;;;;;4.45;3.08;;;;;;;17.52;46.69;99924.44;5018794;28;20457;-75
2021/04/23 08:00:18;;;;;;;4.95;3.72;;;;;;;17.58;46.43;99930.78;5024678;28;20024;-74
2021/04/23 08:02:45;;;;;;;4.57;3.00;;;;;;;17.39;45.98;99905.84;5037486;28;20151;-75
2021/04/23 08:05:14;;;;;;;4.15;2.97;;;;;;;17.27;45.91;99857.66;5040176;28;20029;-76
2021/04/23 08:07:39;;;;;;;3.83;3.42;;;;;;;17.91;45.51;99928.78;5040598;28;20021;-76
2021/04/23 08:10:05;;;;;;;6.20;3.63;;;;;;;17.90;45.20;99926.34;5035159;28;20363;-78
2021/04/23 08:12:31;;;;;;;5.20;3.95;;;;;;;18.14;45.10;99976.31;5033056;28;20053;-78
2021/04/23 08:14:57;;;;;;;3.70;3.15;;;;;;;18.15;45.29;99945.88;5034113;28;20025;-75
2021/04/23 08:17:24;;;;;;;5.68;3.83;;;;;;;18.17;44.96;99914.41;5032882;28;20025;-75
2021/04/23 08:19:50;;;;;;;5.43;4.28;;;;;;;18.14;44.73;99885.44;5034741;28;20073;-75
2021/04/23 08:22:15;;;;;;;6.35;3.83;;;;;;;18.38;45.13;99929.22;5034714;28;20025;-74
2021/04/23 08:24:40;;;;;;;4.18;3.30;;;;;;;18.15;44.80;99900.44;5035311;28;20033;-75
2021/04/23 08:27:06;;;;;;;5.05;3.85;;;;;;;18.42;44.62;99933.91;5036205;28;20039;-76
2021/04/23 08:29:31;;;;;;;6.47;4.15;;;;;;;18.48;44.49;99934.91;5046594;28;20028;-76
2021/04/23 08:31:57;;;;;;;6.75;4.78;;;;;;;18.51;44.35;99944.34;5039445;28;20072;-75
2021/04/23 08:34:22;;;;;;;7.28;3.78;;;;;;;18.32;43.90;99873.97;5038391;28;20033;-78
2021/04/23 08:36:47;;;;;;;7.05;3.03;;;;;;;18.32;43.61;99885.47;5036191;28;20052;-77
2021/04/23 08:39:14;;;;;;;3.63;2.75;;;;;;;18.69;43.64;99949.78;5040680;28;20042;-77
2021/04/23 08:41:40;;;;;;;4.78;2.75;;;;;;;18.75;43.48;99940.06;5034270;28;20029;-76
2021/04/23 08:44:06;;;;;;;3.55;3.00;;;;;;;18.38;43.25;99865.88;5038076;28;20033;-79
2021/04/23 08:46:37;;;;;;;6.20;2.70;;;;;;;18.87;43.15;99933.75;5035871;28;20033;-77
2021/04/23 08:49:05;;;;;;;2.40;1.60;;;;;;;18.89;42.38;99936.19;5040240;28;20034;-79
2021/04/23 08:51:31;;;;;;;3.10;1.63;;;;;;;18.82;41.97;99889.97;5048192;28;20088;-78
2021/04/23 08:53:58;;;;;;;4.53;2.42;;;;;;;19.07;41.74;99933.53;5036883;28;20033;-78
2021/04/23 08:56:24;;;;;;;3.03;1.88;;;;;;;18.71;41.64;99867.44;5035718;28;20138;-78
2021/04/23 08:58:50;;;;;;;2.42;2.00;;;;;;;18.54;41.92;99877.88;5028221;28;20053;-78
2021/04/23 09:01:16;;;;;;;3.17;1.85;;;;;;;19.01;42.18;99937.91;5038203;28;20087;-78
2021/04/23 09:03:41;;;;;;;2.63;1.88;;;;;;;18.77;41.84;99869.25;5039181;28;20449;-77
2021/04/23 09:06:24;;;;;;;3.28;2.10;;;;;;;19.03;41.84;99905.56;5031609;28;20061;-79
2021/04/23 09:08:53;;;;;;;2.28;1.77;;;;;;;19.04;41.55;99923.25;5020282;28;20428;-81
2021/04/23 09:11:31;;;;;;;6.20;2.90;;;;;;;19.13;41.66;99923.78;5032076;28;20033;-76
2021/04/23 09:14:11;;;;;;;2.08;1.88;;;;;;;19.24;40.90;99917.66;5033415;28;20029;-78
2021/04/23 09:16:59;;;;;;;5.05;2.58;;;;;;;18.80;40.68;99857.28;5041638;28;20078;-80
2021/04/23 09:19:27;;;;;;;2.85;2.05;;;;;;;18.89;41.01;99898.75;5046321;28;20313;-77
2021/04/23 09:21:55;;;;;;;4.38;3.42;;;;;;;18.96;41.12;99929.72;5036255;28;20033;-76
2021/04/23 09:24:23;;;;;;;2.90;2.03;;;;;;;19.00;40.91;99909.50;5050734;28;20474;-78
2021/04/23 09:26:50;;;;;;;2.42;2.17;;;;;;;19.11;40.90;99897.22;5032196;28;20049;-75
2021/04/23 09:29:26;;;;;;;2.90;1.70;;;;;;;19.28;40.71;99905.47;5040452;28;20029;-77
2021/04/23 09:31:51;;;;;;;3.10;1.58;;;;;;;18.76;40.89;99824.81;5041344;28;20513;-78
2021/04/23 09:34:18;;;;;;;3.05;2.30;;;;;;;19.50;40.54;99905.81;5030372;28;20057;-76
2021/04/23 09:36:48;;;;;;;2.05;1.85;;;;;;;19.52;40.04;99883.16;5032152;28;20056;-79
2021/04/23 09:39:22;;;;;;;5.95;3.20;;;;;;;18.96;40.50;99803.97;5036053;28;20026;-80
2021/04/23 09:41:53;;;;;;;2.80;2.13;;;;;;;19.58;40.19;99886.78;5032997;28;20040;-78
2021/04/23 09:44:33;;;;;;;2.40;1.85;;;;;;;19.61;39.95;99884.47;5030240;28;20451;-78
2021/04/23 09:47:18;;;;;;;2.08;1.80;;;;;;;19.21;38.88;99817.22;5030267;28;20088;-80
2021/04/23 09:49:56;;;;;;;2.95;2.05;;;;;;;19.56;38.39;99865.56;5033220;28;20060;-77
2021/04/23 09:52:23;;;;;;;1.67;0.85;;;;;;;19.53;38.70;99873.25;5039385;28;20029;-80
2021/04/23 09:54:51;;;;;;;1.75;1.20;;;;;;;19.33;39.02;99839.50;5040509;28;20025;-80
2021/04/23 09:57:22;;;;;;;3.63;1.75;;;;;;;19.69;38.55;99880.63;5041595;28;20025;-76
2021/04/23 09:59:56;;;;;;;1.23;1.10;;;;;;;19.23;38.52;99808.94;5041133;28;20369;-79
2021/04/23 10:02:24;;;;;;;1.38;1.20;;;;;;;19.70;38.40;99873.41;5050732;28;20057;-75
2021/04/23 10:04:51;;;;;;;1.92;1.60;;;;;;;19.61;38.64;99828.22;5038253;28;20117;-75
2021/04/23 10:07:31;;;;;;;2.22;1.63;;;;;;;19.63;38.16;99826.13;5043765;28;20427;-75
2021/04/23 10:10:03;;;;;;;3.17;1.52;;;;;;;20.00;38.32;99876.84;5035546;28;20045;-78
2021/04/23 10:12:31;;;;;;;1.92;1.60;;;;;;;20.18;37.98;99887.50;5037936;28;21447;-77
2021/04/23 10:15:07;;;;;;;2.80;1.65;;;;;;;20.21;37.68;99875.50;5039309;28;20025;-76
2021/04/23 10:17:33;;;;;;;2.55;1.92;;;;;;;20.40;37.76;99866.31;5028957;28;20049;-74
2021/04/23 10:19:59;;;;;;;2.22;1.48;;;;;;;20.49;37.52;99831.91;5037053;28;20057;-75
2021/04/23 10:22:25;;;;;;;2.83;1.80;;;;;;;20.80;37.38;99887.84;5033055;28;20021;-74
2021/04/23 10:24:52;;;;;;;4.13;1.88;;;;;;;20.47;36.99;99826.78;5033188;28;20071;-79
2021/04/23 10:27:18;;;;;;;5.32;2.72;;;;;;;20.61;36.60;99827.31;5037532;28;20036;-77
2021/04/23 10:29:46;;;;;;;2.83;1.42;;;;;;;21.19;36.04;99883.56;5045495;28;20450;-76
2021/04/23 10:32:13;;;;;;;3.33;1.92;;;;;;;21.28;35.79;99880.53;5038962;28;20040;-76
2021/04/23 10:34:39;;;;;;;2.10;1.50;;;;;;;20.77;35.63;99797.06;5032073;28;20022;-80
2021/04/23 10:37:05;;;;;;;3.63;2.47;;;;;;;21.12;36.00;99877.50;5036774;28;20052;-76
2021/04/23 10:39:39;;;;;;;4.38;1.73;;;;;;;20.63;35.81;99827.91;5035510;28;20085;-76
2021/04/23 10:42:25;;;;;;;4.40;1.70;;;;;;;21.09;36.33;99878.00;5038071;28;20036;-77
2021/04/23 10:45:01;;;;;;;3.58;1.13;;;;;;;20.89;36.55;99880.25;5039551;28;20514;-79
2021/04/23 10:47:35;;;;;;;1.73;1.20;;;;;;;20.62;36.54;99843.19;5030498;28;20036;-75
2021/04/23 10:50:12;;;;;;;2.60;1.13;;;;;;;20.21;36.75;99784.34;5032601;28;20444;-78
2021/04/23 10:53:01;;;;;;;1.55;1.45;;;;;;;20.71;36.49;99867.78;5035339;28;20025;-78
2021/04/23 10:55:43;;;;;;;2.38;1.33;;;;;;;20.38;36.65;99819.28;5034754;28;20455;-78
2021/04/23 10:58:11;;;;;;;1.80;1.20;;;;;;;20.30;37.26;99809.75;5036957;28;20049;-78
2021/04/23 11:00:41;;;;;;;1.52;1.30;;;;;;;20.72;37.15;99857.88;5034467;28;20037;-79
2021/04/23 11:03:25;;;;;;;2.55;1.10;;;;;;;20.90;35.93;99861.25;5034369;28;20359;-79
2021/04/23 11:05:52;;;;;;;1.60;1.30;;;;;;;20.97;36.34;99857.59;5017709;28;20029;-79
2021/04/23 11:08:18;;;;;;;3.05;1.27;;;;;;;20.88;36.29;99852.59;5036350;28;20032;-77
2021/04/23 11:13:28;;;;;;;1.33;1.23;;;;;;;20.85;36.47;99871.88;5027734;28;20136;-80
2021/04/23 11:16:24;;;;;;;1.10;1.10;;;;;;;21.14;36.06;99879.97;5032619;28;20041;-78
2021/04/23 11:18:55;;;;;;;1.65;1.40;;;;;;;21.38;35.85;99867.28;5024881;28;20029;-80
2021/04/23 11:21:27;;;;;;;2.40;2.05;;;;;;;21.78;35.31;99862.66;5034037;28;20030;-78
2021/04/23 11:24:15;;;;;;;2.58;1.35;;;;;;;21.92;34.99;99867.69;5034708;28;20129;-79
2021/04/23 11:26:57;;;;;;;1.33;1.23;;;;;;;21.97;34.52;99873.16;5032974;28;20029;-79
2021/04/23 11:29:30;;;;;;;1.70;1.60;;;;;;;21.89;34.61;99863.63;5034671;28;20328;-74
2021/04/23 11:32:18;;;;;;;2.95;1.20;;;;;;;21.86;34.74;99856.06;5034241;28;20029;-79
2021/04/23 11:34:47;;;;;;;3.08;1.80;;;;;;;21.82;35.38;99857.59;5039387;28;20031;-74